sensor_id;sensor_type;location;lat;lon;timestamp;pressure;altitude;pressure_sealevel;temperature;humidity
77897;BME280;67092;64.282;21.056;2023-04-25T00:02:19;100876.59;;;20.47;22.59
77897;BME280;67092;64.282;21.056;2023-04-25T00:04:45;100877.84;;;20.62;22.45
77897;BME280;67092;64.282;21.056;2023-04-25T00:07:10;100874.61;;;20.40;22.39
77897;BME280;67092;64.282;21.056;2023-04-25T00:09:36;100876.19;;;20.84;22.22
77897;BME280;67092;64.282;21.056;2023-04-25T00:12:02;100870.59;;;20.45;22.53
77897;BME280;67092;64.282;21.056;2023-04-25T00:14:28;100868.80;;;20.61;22.51
77897;BME280;67092;64.282;21.056;2023-04-25T00:16:53;100859.97;;;20.91;22.40
77897;BME280;67092;64.282;21.056;2023-04-25T00:19:18;100851.45;;;20.48;22.48
77897;BME280;67092;64.282;21.056;2023-04-25T00:21:44;100846.32;;;20.48;22.53
77897;BME280;67092;64.282;21.056;2023-04-25T00:24:10;100843.84;;;20.88;22.39
77897;BME280;67092;64.282;21.056;2023-04-25T00:26:35;100839.55;;;20.58;22.73
77897;BME280;67092;64.282;21.056;2023-04-25T00:29:01;100838.55;;;20.42;22.56
77897;BME280;67092;64.282;21.056;2023-04-25T00:31:26;100840.31;;;20.47;22.54
77897;BME280;67092;64.282;21.056;2023-04-25T00:33:52;100836.06;;;20.19;23.05
77897;BME280;67092;64.282;21.056;2023-04-25T00:36:18;100837.58;;;20.16;22.83
77897;BME280;67092;64.282;21.056;2023-04-25T00:38:43;100840.49;;;20.50;22.77
77897;BME280;67092;64.282;21.056;2023-04-25T00:41:09;100837.65;;;20.03;23.00
77897;BME280;67092;64.282;21.056;2023-04-25T00:43:36;100831.20;;;20.20;23.02
77897;BME280;67092;64.282;21.056;2023-04-25T00:46:01;100829.23;;;19.90;22.87
77897;BME280;67092;64.282;21.056;2023-04-25T00:48:26;100828.63;;;20.42;22.63
77897;BME280;67092;64.282;21.056;2023-04-25T00:50:53;100833.82;;;20.18;22.80
77897;BME280;67092;64.282;21.056;2023-04-25T00:53:17;100841.88;;;20.37;22.64
77897;BME280;67092;64.282;21.056;2023-04-25T00:55:43;100839.78;;;20.67;22.64
77897;BME280;67092;64.282;21.056;2023-04-25T00:58:08;100835.32;;;20.46;22.75
77897;BME280;67092;64.282;21.056;2023-04-25T01:00:34;100834.34;;;19.68;23.14
77897;BME280;67092;64.282;21.056;2023-04-25T01:03:00;100832.14;;;20.72;22.56
77897;BME280;67092;64.282;21.056;2023-04-25T01:05:26;100827.63;;;19.43;22.81
77897;BME280;67092;64.282;21.056;2023-04-25T01:07:51;100823.96;;;20.34;22.63
77897;BME280;67092;64.282;21.056;2023-04-25T01:10:16;100822.06;;;20.81;22.37
77897;BME280;67092;64.282;21.056;2023-04-25T01:12:42;100824.50;;;20.08;22.84
77897;BME280;67092;64.282;21.056;2023-04-25T01:15:08;100826.78;;;20.18;22.66
77897;BME280;67092;64.282;21.056;2023-04-25T01:17:34;100830.50;;;19.60;22.98
77897;BME280;67092;64.282;21.056;2023-04-25T01:19:59;100830.98;;;20.47;22.67
77897;BME280;67092;64.282;21.056;2023-04-25T01:22:25;100834.61;;;20.24;22.69
77897;BME280;67092;64.282;21.056;2023-04-25T01:24:50;100840.04;;;20.61;22.56
77897;BME280;67092;64.282;21.056;2023-04-25T01:27:16;100842.66;;;20.14;22.84
77897;BME280;67092;64.282;21.056;2023-04-25T01:29:42;100845.57;;;20.70;22.24
77897;BME280;67092;64.282;21.056;2023-04-25T01:32:08;100853.04;;;20.58;22.36
77897;BME280;67092;64.282;21.056;2023-04-25T01:34:33;100856.33;;;20.45;22.48
77897;BME280;67092;64.282;21.056;2023-04-25T01:37:00;100855.42;;;20.35;22.78
77897;BME280;67092;64.282;21.056;2023-04-25T01:39:24;100846.64;;;20.21;22.75
77897;BME280;67092;64.282;21.056;2023-04-25T01:41:50;100843.55;;;20.50;22.46
77897;BME280;67092;64.282;21.056;2023-04-25T01:44:15;100847.33;;;20.78;22.38
77897;BME280;67092;64.282;21.056;2023-04-25T01:46:41;100851.23;;;20.56;22.64
77897;BME280;67092;64.282;21.056;2023-04-25T01:49:06;100859.99;;;20.50;22.67
77897;BME280;67092;64.282;21.056;2023-04-25T01:51:32;100869.41;;;20.53;22.64
77897;BME280;67092;64.282;21.056;2023-04-25T01:53:58;100872.43;;;20.44;22.79
77897;BME280;67092;64.282;21.056;2023-04-25T01:56:23;100870.34;;;20.03;23.02
77897;BME280;67092;64.282;21.056;2023-04-25T01:58:49;100863.32;;;19.97;22.91
77897;BME280;67092;64.282;21.056;2023-04-25T02:01:15;100861.94;;;20.10;22.86
77897;BME280;67092;64.282;21.056;2023-04-25T02:03:40;100858.31;;;19.97;22.72
77897;BME280;67092;64.282;21.056;2023-04-25T02:06:06;100862.13;;;20.72;22.47
77897;BME280;67092;64.282;21.056;2023-04-25T02:08:31;100862.48;;;20.60;22.58
77897;BME280;67092;64.282;21.056;2023-04-25T02:10:57;100854.16;;;20.31;22.62
77897;BME280;67092;64.282;21.056;2023-04-25T02:13:23;100855.41;;;20.40;22.51
77897;BME280;67092;64.282;21.056;2023-04-25T02:15:48;100851.12;;;20.38;22.64
77897;BME280;67092;64.282;21.056;2023-04-25T02:18:14;100846.61;;;20.21;22.72
77897;BME280;67092;64.282;21.056;2023-04-25T02:20:39;100844.53;;;20.43;22.50
77897;BME280;67092;64.282;21.056;2023-04-25T02:23:05;100839.33;;;20.08;22.81
77897;BME280;67092;64.282;21.056;2023-04-25T02:25:31;100837.85;;;20.33;22.59
77897;BME280;67092;64.282;21.056;2023-04-25T02:27:56;100836.50;;;20.51;22.57
77897;BME280;67092;64.282;21.056;2023-04-25T02:30:22;100832.25;;;20.86;22.33
77897;BME280;67092;64.282;21.056;2023-04-25T02:32:48;100829.78;;;20.31;22.79
77897;BME280;67092;64.282;21.056;2023-04-25T02:35:13;100822.65;;;20.33;22.46
77897;BME280;67092;64.282;21.056;2023-04-25T02:37:40;100816.43;;;20.14;22.63
77897;BME280;67092;64.282;21.056;2023-04-25T02:40:06;100811.66;;;20.35;22.67
77897;BME280;67092;64.282;21.056;2023-04-25T02:42:30;100806.25;;;20.30;22.72
77897;BME280;67092;64.282;21.056;2023-04-25T02:44:56;100809.55;;;20.26;22.71
77897;BME280;67092;64.282;21.056;2023-04-25T02:47:21;100812.20;;;20.49;22.48
77897;BME280;67092;64.282;21.056;2023-04-25T02:49:47;100809.40;;;20.30;22.69
77897;BME280;67092;64.282;21.056;2023-04-25T02:52:13;100808.58;;;20.04;22.69
77897;BME280;67092;64.282;21.056;2023-04-25T02:54:39;100805.60;;;20.05;22.90
77897;BME280;67092;64.282;21.056;2023-04-25T02:57:04;100806.93;;;20.04;23.06
77897;BME280;67092;64.282;21.056;2023-04-25T02:59:29;100809.66;;;20.50;22.68
77897;BME280;67092;64.282;21.056;2023-04-25T03:01:55;100815.21;;;20.29;22.91
77897;BME280;67092;64.282;21.056;2023-04-25T03:04:21;100816.12;;;19.99;22.95
77897;BME280;67092;64.282;21.056;2023-04-25T03:06:46;100814.15;;;20.23;22.93
77897;BME280;67092;64.282;21.056;2023-04-25T03:09:12;100813.77;;;20.01;22.98
77897;BME280;67092;64.282;21.056;2023-04-25T03:11:39;100812.00;;;20.31;22.88
77897;BME280;67092;64.282;21.056;2023-04-25T03:14:03;100813.23;;;20.17;23.12
77897;BME280;67092;64.282;21.056;2023-04-25T03:16:29;100815.02;;;20.31;22.90
77897;BME280;67092;64.282;21.056;2023-04-25T03:18:54;100818.86;;;20.20;23.07
77897;BME280;67092;64.282;21.056;2023-04-25T03:21:20;100822.04;;;19.95;23.24
77897;BME280;67092;64.282;21.056;2023-04-25T03:23:46;100827.06;;;20.16;23.18
77897;BME280;67092;64.282;21.056;2023-04-25T03:26:11;100827.83;;;20.12;23.17
77897;BME280;67092;64.282;21.056;2023-04-25T03:28:37;100819.27;;;20.11;23.17
77897;BME280;67092;64.282;21.056;2023-04-25T03:31:03;100817.37;;;19.98;23.31
77897;BME280;67092;64.282;21.056;2023-04-25T03:33:28;100817.30;;;19.82;23.23
77897;BME280;67092;64.282;21.056;2023-04-25T03:35:54;100816.76;;;20.17;23.15
77897;BME280;67092;64.282;21.056;2023-04-25T03:38:19;100815.63;;;20.13;23.18
77897;BME280;67092;64.282;21.056;2023-04-25T03:40:45;100816.53;;;20.02;23.30
77897;BME280;67092;64.282;21.056;2023-04-25T03:43:11;100818.06;;;19.94;23.32
77897;BME280;67092;64.282;21.056;2023-04-25T03:45:36;100818.67;;;19.79;23.48
77897;BME280;67092;64.282;21.056;2023-04-25T03:48:02;100820.05;;;19.87;23.44
77897;BME280;67092;64.282;21.056;2023-04-25T03:50:28;100816.01;;;19.32;23.48
77897;BME280;67092;64.282;21.056;2023-04-25T03:52:53;100817.67;;;20.21;23.18
77897;BME280;67092;64.282;21.056;2023-04-25T03:55:19;100812.78;;;19.94;23.37
77897;BME280;67092;64.282;21.056;2023-04-25T03:57:44;100814.77;;;19.64;23.65
77897;BME280;67092;64.282;21.056;2023-04-25T04:00:11;100818.47;;;19.78;23.64
77897;BME280;67092;64.282;21.056;2023-04-25T04:02:36;100819.17;;;20.19;23.19
77897;BME280;67092;64.282;21.056;2023-04-25T04:05:01;100820.62;;;20.45;22.93
77897;BME280;67092;64.282;21.056;2023-04-25T04:07:27;100822.35;;;19.77;23.58
77897;BME280;67092;64.282;21.056;2023-04-25T04:09:52;100824.46;;;19.77;23.51
77897;BME280;67092;64.282;21.056;2023-04-25T04:12:18;100824.43;;;20.08;23.51
77897;BME280;67092;64.282;21.056;2023-04-25T04:14:44;100817.80;;;19.61;23.81
77897;BME280;67092;64.282;21.056;2023-04-25T04:17:09;100807.15;;;19.91;23.49
77897;BME280;67092;64.282;21.056;2023-04-25T04:19:35;100807.00;;;20.12;23.31
77897;BME280;67092;64.282;21.056;2023-04-25T04:22:01;100802.39;;;20.02;23.41
77897;BME280;67092;64.282;21.056;2023-04-25T04:24:26;100801.55;;;20.01;23.37
77897;BME280;67092;64.282;21.056;2023-04-25T04:26:52;100802.64;;;19.98;23.17
77897;BME280;67092;64.282;21.056;2023-04-25T04:29:17;100799.86;;;20.25;23.12
77897;BME280;67092;64.282;21.056;2023-04-25T04:31:43;100798.20;;;19.72;23.57
77897;BME280;67092;64.282;21.056;2023-04-25T04:34:09;100795.43;;;19.99;23.38
77897;BME280;67092;64.282;21.056;2023-04-25T04:36:34;100790.02;;;19.92;23.39
77897;BME280;67092;64.282;21.056;2023-04-25T04:39:00;100786.41;;;20.03;23.37
77897;BME280;67092;64.282;21.056;2023-04-25T04:41:26;100786.35;;;20.35;22.96
77897;BME280;67092;64.282;21.056;2023-04-25T04:43:51;100783.51;;;19.76;23.46
77897;BME280;67092;64.282;21.056;2023-04-25T04:46:17;100788.09;;;20.15;23.24
77897;BME280;67092;64.282;21.056;2023-04-25T04:48:43;100788.17;;;20.00;23.38
77897;BME280;67092;64.282;21.056;2023-04-25T04:51:08;100788.54;;;19.88;23.47
77897;BME280;67092;64.282;21.056;2023-04-25T04:53:34;100787.40;;;19.87;23.42
77897;BME280;67092;64.282;21.056;2023-04-25T04:55:59;100782.70;;;20.03;23.32
77897;BME280;67092;64.282;21.056;2023-04-25T04:58:25;100781.08;;;19.72;23.76
77897;BME280;67092;64.282;21.056;2023-04-25T05:00:51;100780.55;;;19.99;23.11
77897;BME280;67092;64.282;21.056;2023-04-25T05:03:16;100776.21;;;19.70;23.45
77897;BME280;67092;64.282;21.056;2023-04-25T05:05:42;100774.62;;;19.81;23.55
77897;BME280;67092;64.282;21.056;2023-04-25T05:08:08;100773.58;;;19.90;23.49
77897;BME280;67092;64.282;21.056;2023-04-25T05:10:33;100772.98;;;20.16;23.46
77897;BME280;67092;64.282;21.056;2023-04-25T05:12:59;100770.00;;;19.46;23.67
77897;BME280;67092;64.282;21.056;2023-04-25T05:15:24;100762.56;;;19.48;23.60
77897;BME280;67092;64.282;21.056;2023-04-25T05:17:50;100766.52;;;19.99;23.48
77897;BME280;67092;64.282;21.056;2023-04-25T05:20:16;100769.41;;;19.89;23.30
77897;BME280;67092;64.282;21.056;2023-04-25T05:22:41;100768.61;;;20.24;23.19
77897;BME280;67092;64.282;21.056;2023-04-25T05:25:08;100768.80;;;20.09;23.27
77897;BME280;67092;64.282;21.056;2023-04-25T05:27:32;100774.48;;;20.10;23.34
77897;BME280;67092;64.282;21.056;2023-04-25T05:29:58;100772.07;;;19.92;23.46
77897;BME280;67092;64.282;21.056;2023-04-25T05:32:24;100775.89;;;20.21;23.19
77897;BME280;67092;64.282;21.056;2023-04-25T05:34:49;100775.32;;;19.91;23.41
77897;BME280;67092;64.282;21.056;2023-04-25T05:37:15;100772.90;;;19.68;23.62
77897;BME280;67092;64.282;21.056;2023-04-25T05:39:41;100770.99;;;19.59;23.72
77897;BME280;67092;64.282;21.056;2023-04-25T05:42:06;100773.03;;;19.42;23.86
77897;BME280;67092;64.282;21.056;2023-04-25T05:44:32;100767.08;;;19.58;23.67
77897;BME280;67092;64.282;21.056;2023-04-25T05:46:57;100771.33;;;19.73;23.56
77897;BME280;67092;64.282;21.056;2023-04-25T05:49:23;100769.45;;;19.49;23.73
77897;BME280;67092;64.282;21.056;2023-04-25T05:51:49;100767.76;;;19.75;23.79
77897;BME280;67092;64.282;21.056;2023-04-25T05:54:14;100765.55;;;19.77;23.55
77897;BME280;67092;64.282;21.056;2023-04-25T05:56:40;100762.04;;;19.51;23.76
77897;BME280;67092;64.282;21.056;2023-04-25T05:59:06;100764.33;;;19.61;23.42
77897;BME280;67092;64.282;21.056;2023-04-25T06:01:31;100759.23;;;19.97;23.60
77897;BME280;67092;64.282;21.056;2023-04-25T06:03:57;100755.88;;;19.57;23.69
77897;BME280;67092;64.282;21.056;2023-04-25T06:06:22;100750.36;;;19.65;23.66
77897;BME280;67092;64.282;21.056;2023-04-25T06:08:48;100747.80;;;19.44;23.62
77897;BME280;67092;64.282;21.056;2023-04-25T06:11:14;100750.44;;;19.74;23.52
77897;BME280;67092;64.282;21.056;2023-04-25T06:13:39;100751.56;;;19.55;23.70
77897;BME280;67092;64.282;21.056;2023-04-25T06:16:05;100750.32;;;19.75;23.80
77897;BME280;67092;64.282;21.056;2023-04-25T06:18:31;100745.25;;;19.73;23.56
77897;BME280;67092;64.282;21.056;2023-04-25T06:20:56;100746.57;;;19.73;23.50
77897;BME280;67092;64.282;21.056;2023-04-25T06:23:22;100744.25;;;19.61;23.69
77897;BME280;67092;64.282;21.056;2023-04-25T06:25:47;100752.89;;;19.78;23.55
77897;BME280;67092;64.282;21.056;2023-04-25T06:28:13;100757.25;;;19.77;23.49
77897;BME280;67092;64.282;21.056;2023-04-25T06:30:39;100755.30;;;19.76;23.44
77897;BME280;67092;64.282;21.056;2023-04-25T06:33:04;100754.26;;;20.09;23.41
77897;BME280;67092;64.282;21.056;2023-04-25T06:35:30;100750.38;;;20.08;23.20
77897;BME280;67092;64.282;21.056;2023-04-25T06:37:56;100747.91;;;19.73;23.28
77897;BME280;67092;64.282;21.056;2023-04-25T06:40:21;100745.13;;;19.60;23.59
77897;BME280;67092;64.282;21.056;2023-04-25T06:42:47;100746.96;;;19.61;23.64
77897;BME280;67092;64.282;21.056;2023-04-25T06:45:12;100746.40;;;19.70;23.53
77897;BME280;67092;64.282;21.056;2023-04-25T06:47:38;100747.00;;;19.80;23.70
77897;BME280;67092;64.282;21.056;2023-04-25T06:50:05;100746.43;;;19.90;23.40
77897;BME280;67092;64.282;21.056;2023-04-25T06:52:30;100748.85;;;19.84;23.48
77897;BME280;67092;64.282;21.056;2023-04-25T06:54:55;100745.15;;;20.03;23.33
77897;BME280;67092;64.282;21.056;2023-04-25T06:57:21;100746.17;;;20.35;23.07
77897;BME280;67092;64.282;21.056;2023-04-25T06:59:46;100746.12;;;20.22;23.18
77897;BME280;67092;64.282;21.056;2023-04-25T07:02:12;100740.08;;;19.99;23.36
77897;BME280;67092;64.282;21.056;2023-04-25T07:04:37;100738.62;;;20.02;23.41
77897;BME280;67092;64.282;21.056;2023-04-25T07:07:03;100734.77;;;20.03;23.40
77897;BME280;67092;64.282;21.056;2023-04-25T07:09:29;100735.31;;;19.51;23.90
77897;BME280;67092;64.282;21.056;2023-04-25T07:11:55;100735.54;;;19.77;23.64
77897;BME280;67092;64.282;21.056;2023-04-25T07:14:20;100735.98;;;19.64;23.73
77897;BME280;67092;64.282;21.056;2023-04-25T07:16:46;100731.81;;;19.82;23.59
77897;BME280;67092;64.282;21.056;2023-04-25T07:19:11;100730.03;;;19.52;23.84
77897;BME280;67092;64.282;21.056;2023-04-25T07:21:37;100730.81;;;19.74;23.67
77897;BME280;67092;64.282;21.056;2023-04-25T07:24:03;100733.73;;;19.56;23.84
77897;BME280;67092;64.282;21.056;2023-04-25T07:26:28;100730.64;;;19.98;23.51
77897;BME280;67092;64.282;21.056;2023-04-25T07:28:54;100729.12;;;19.82;23.74
77897;BME280;67092;64.282;21.056;2023-04-25T07:31:45;100726.91;;;19.99;23.65
77897;BME280;67092;64.282;21.056;2023-04-25T07:33:45;100726.02;;;19.85;23.89
77897;BME280;67092;64.282;21.056;2023-04-25T07:36:11;100728.66;;;20.36;23.89
77897;BME280;67092;64.282;21.056;2023-04-25T07:38:36;100726.59;;;19.79;23.94
77897;BME280;67092;64.282;21.056;2023-04-25T07:41:02;100721.41;;;20.08;23.69
77897;BME280;67092;64.282;21.056;2023-04-25T07:43:28;100720.68;;;20.16;23.39
77897;BME280;67092;64.282;21.056;2023-04-25T07:45:53;100719.52;;;20.27;23.51
77897;BME280;67092;64.282;21.056;2023-04-25T07:48:19;100716.02;;;19.85;23.65
77897;BME280;67092;64.282;21.056;2023-04-25T07:50:45;100716.45;;;20.52;23.23
77897;BME280;67092;64.282;21.056;2023-04-25T07:53:10;100719.68;;;20.12;23.69
77897;BME280;67092;64.282;21.056;2023-04-25T07:55:36;100714.48;;;19.86;23.70
77897;BME280;67092;64.282;21.056;2023-04-25T07:58:01;100718.10;;;20.09;23.48
77897;BME280;67092;64.282;21.056;2023-04-25T08:00:27;100724.84;;;20.28;23.48
77897;BME280;67092;64.282;21.056;2023-04-25T08:02:52;100724.76;;;20.26;23.32
77897;BME280;67092;64.282;21.056;2023-04-25T08:05:23;100729.28;;;20.29;23.48
77897;BME280;67092;64.282;21.056;2023-04-25T08:07:44;100730.78;;;20.33;23.48
77897;BME280;67092;64.282;21.056;2023-04-25T08:10:10;100730.19;;;19.95;23.81
77897;BME280;67092;64.282;21.056;2023-04-25T08:12:35;100731.22;;;20.12;23.46
77897;BME280;67092;64.282;21.056;2023-04-25T08:15:02;100735.93;;;20.26;23.31
77897;BME280;67092;64.282;21.056;2023-04-25T08:17:26;100738.05;;;20.27;23.31
77897;BME280;67092;64.282;21.056;2023-04-25T08:19:52;100741.55;;;20.29;23.27
77897;BME280;67092;64.282;21.056;2023-04-25T08:22:17;100743.47;;;20.06;23.48
77897;BME280;67092;64.282;21.056;2023-04-25T08:24:43;100742.10;;;20.02;23.36
77897;BME280;67092;64.282;21.056;2023-04-25T08:27:09;100729.25;;;19.98;23.46
77897;BME280;67092;64.282;21.056;2023-04-25T08:29:34;100730.51;;;20.35;23.29
77897;BME280;67092;64.282;21.056;2023-04-25T08:32:00;100728.94;;;20.91;23.02
77897;BME280;67092;64.282;21.056;2023-04-25T08:34:25;100730.77;;;20.89;22.74
77897;BME280;67092;64.282;21.056;2023-04-25T08:36:51;100740.61;;;20.52;22.98
77897;BME280;67092;64.282;21.056;2023-04-25T08:39:17;100748.92;;;20.28;23.03
77897;BME280;67092;64.282;21.056;2023-04-25T08:41:42;100750.42;;;20.21;23.03
77897;BME280;67092;64.282;21.056;2023-04-25T08:44:10;100743.83;;;20.24;22.86
77897;BME280;67092;64.282;21.056;2023-04-25T08:46:34;100746.16;;;20.51;22.57
77897;BME280;67092;64.282;21.056;2023-04-25T08:49:01;100751.07;;;20.70;22.51
77897;BME280;67092;64.282;21.056;2023-04-25T08:51:25;100749.95;;;20.82;22.35
77897;BME280;67092;64.282;21.056;2023-04-25T08:53:52;100743.45;;;20.30;22.51
77897;BME280;67092;64.282;21.056;2023-04-25T08:56:17;100738.78;;;20.35;22.44
77897;BME280;67092;64.282;21.056;2023-04-25T08:58:42;100736.00;;;20.25;22.48
77897;BME280;67092;64.282;21.056;2023-04-25T09:01:07;100731.54;;;20.44;22.46
77897;BME280;67092;64.282;21.056;2023-04-25T09:03:33;100720.41;;;20.36;22.49
77897;BME280;67092;64.282;21.056;2023-04-25T09:05:59;100714.25;;;20.66;22.18
77897;BME280;67092;64.282;21.056;2023-04-25T09:08:24;100711.23;;;20.35;22.15
77897;BME280;67092;64.282;21.056;2023-04-25T09:10:50;100700.51;;;20.37;22.31
77897;BME280;67092;64.282;21.056;2023-04-25T09:13:24;100698.71;;;20.37;22.07
77897;BME280;67092;64.282;21.056;2023-04-25T09:15:48;100715.48;;;20.55;21.69
77897;BME280;67092;64.282;21.056;2023-04-25T09:18:07;100723.84;;;20.86;21.56
77897;BME280;67092;64.282;21.056;2023-04-25T09:20:37;100724.84;;;20.93;21.66
77897;BME280;67092;64.282;21.056;2023-04-25T09:23:02;100729.04;;;21.28;21.15
77897;BME280;67092;64.282;21.056;2023-04-25T09:25:24;100719.76;;;21.19;21.15
77897;BME280;67092;64.282;21.056;2023-04-25T09:27:50;100705.70;;;21.19;21.11
77897;BME280;67092;64.282;21.056;2023-04-25T09:30:16;100703.82;;;21.34;20.95
77897;BME280;67092;64.282;21.056;2023-04-25T09:32:43;100701.42;;;20.84;21.34
77897;BME280;67092;64.282;21.056;2023-04-25T09:35:06;100693.91;;;20.82;21.33
77897;BME280;67092;64.282;21.056;2023-04-25T09:37:32;100692.97;;;20.96;20.99
77897;BME280;67092;64.282;21.056;2023-04-25T09:39:59;100684.87;;;20.87;21.06
77897;BME280;67092;64.282;21.056;2023-04-25T09:42:24;100672.07;;;20.69;21.33
77897;BME280;67092;64.282;21.056;2023-04-25T09:44:49;100663.78;;;20.63;21.22
77897;BME280;67092;64.282;21.056;2023-04-25T09:47:15;100666.18;;;21.07;21.25
77897;BME280;67092;64.282;21.056;2023-04-25T09:49:41;100662.67;;;20.76;21.23
77897;BME280;67092;64.282;21.056;2023-04-25T09:52:06;100662.29;;;20.69;21.28
77897;BME280;67092;64.282;21.056;2023-04-25T09:54:31;100660.83;;;20.93;21.01
77897;BME280;67092;64.282;21.056;2023-04-25T09:56:58;100654.87;;;20.47;21.18
77897;BME280;67092;64.282;21.056;2023-04-25T09:59:23;100649.12;;;20.90;20.79
77897;BME280;67092;64.282;21.056;2023-04-25T10:01:49;100651.42;;;20.56;20.94
77897;BME280;67092;64.282;21.056;2023-04-25T10:04:18;100635.73;;;20.86;20.80
77897;BME280;67092;64.282;21.056;2023-04-25T10:06:40;100637.34;;;20.63;20.98
77897;BME280;67092;64.282;21.056;2023-04-25T10:09:06;100637.37;;;20.61;20.79
77897;BME280;67092;64.282;21.056;2023-04-25T10:11:31;100642.61;;;20.95;20.90
77897;BME280;67092;64.282;21.056;2023-04-25T10:13:56;100640.80;;;20.95;20.87
77897;BME280;67092;64.282;21.056;2023-04-25T10:16:22;100638.09;;;21.03;20.82
77897;BME280;67092;64.282;21.056;2023-04-25T10:18:48;100634.65;;;21.07;20.58
77897;BME280;67092;64.282;21.056;2023-04-25T10:21:14;100636.42;;;20.76;20.84
77897;BME280;67092;64.282;21.056;2023-04-25T10:23:39;100622.59;;;20.73;20.85
77897;BME280;67092;64.282;21.056;2023-04-25T10:26:04;100628.53;;;20.61;21.07
77897;BME280;67092;64.282;21.056;2023-04-25T10:30:58;100620.29;;;20.86;20.44
77897;BME280;67092;64.282;21.056;2023-04-25T10:33:30;100615.33;;;20.80;20.51
77897;BME280;67092;64.282;21.056;2023-04-25T10:35:47;100606.92;;;21.65;19.63
77897;BME280;67092;64.282;21.056;2023-04-25T10:38:14;100611.36;;;20.90;19.88
77897;BME280;67092;64.282;21.056;2023-04-25T10:40:37;100603.31;;;20.93;19.71
77897;BME280;67092;64.282;21.056;2023-04-25T10:45:28;100596.59;;;20.68;20.18
77897;BME280;67092;64.282;21.056;2023-04-25T10:47:54;100591.53;;;20.78;19.98
77897;BME280;67092;64.282;21.056;2023-04-25T10:50:20;100590.91;;;20.59;19.83
77897;BME280;67092;64.282;21.056;2023-04-25T10:52:45;100584.77;;;20.41;19.96
77897;BME280;67092;64.282;21.056;2023-04-25T10:55:11;100578.23;;;20.48;19.97
77897;BME280;67092;64.282;21.056;2023-04-25T10:57:38;100575.49;;;20.47;19.85
77897;BME280;67092;64.282;21.056;2023-04-25T11:00:08;100568.06;;;20.65;19.66
77897;BME280;67092;64.282;21.056;2023-04-25T11:02:28;100563.96;;;20.51;19.71
77897;BME280;67092;64.282;21.056;2023-04-25T11:04:53;100569.39;;;20.22;19.70
77897;BME280;67092;64.282;21.056;2023-04-25T11:07:26;100566.13;;;20.71;19.50
77897;BME280;67092;64.282;21.056;2023-04-25T11:09:45;100564.82;;;20.66;19.26
77897;BME280;67092;64.282;21.056;2023-04-25T11:12:10;100577.96;;;20.49;19.44
77897;BME280;67092;64.282;21.056;2023-04-25T11:14:36;100577.80;;;21.27;18.86
77897;BME280;67092;64.282;21.056;2023-04-25T11:17:02;100575.92;;;21.14;19.03
77897;BME280;67092;64.282;21.056;2023-04-25T11:19:28;100581.74;;;20.57;19.47
77897;BME280;67092;64.282;21.056;2023-04-25T11:21:55;100574.95;;;21.15;19.12
77897;BME280;67092;64.282;21.056;2023-04-25T11:24:18;100577.26;;;20.83;19.58
77897;BME280;67092;64.282;21.056;2023-04-25T11:26:47;100566.02;;;21.13;19.23
77897;BME280;67092;64.282;21.056;2023-04-25T11:29:09;100571.55;;;20.96;19.39
77897;BME280;67092;64.282;21.056;2023-04-25T11:31:35;100565.76;;;20.85;19.29
77897;BME280;67092;64.282;21.056;2023-04-25T11:34:01;100576.49;;;21.02;19.36
77897;BME280;67092;64.282;21.056;2023-04-25T11:36:26;100570.71;;;20.90;19.31
77897;BME280;67092;64.282;21.056;2023-04-25T11:38:52;100573.43;;;20.83;19.57
77897;BME280;67092;64.282;21.056;2023-04-25T11:41:18;100570.32;;;21.10;19.55
77897;BME280;67092;64.282;21.056;2023-04-25T11:43:43;100568.56;;;20.68;19.76
77897;BME280;67092;64.282;21.056;2023-04-25T11:46:09;100564.65;;;20.86;19.65
77897;BME280;67092;64.282;21.056;2023-04-25T11:48:38;100553.74;;;20.95;19.61
77897;BME280;67092;64.282;21.056;2023-04-25T11:51:00;100556.67;;;21.05;19.54
77897;BME280;67092;64.282;21.056;2023-04-25T11:53:25;100559.37;;;20.27;20.15
77897;BME280;67092;64.282;21.056;2023-04-25T11:55:50;100555.06;;;20.63;19.90
77897;BME280;67092;64.282;21.056;2023-04-25T11:58:16;100548.91;;;20.81;19.77
77897;BME280;67092;64.282;21.056;2023-04-25T12:00:42;100550.32;;;20.50;19.94
77897;BME280;67092;64.282;21.056;2023-04-25T12:03:09;100547.08;;;20.29;20.00
77897;BME280;67092;64.282;21.056;2023-04-25T12:05:33;100540.67;;;20.63;19.93
77897;BME280;67092;64.282;21.056;2023-04-25T12:10:24;100531.24;;;20.60;19.89
77897;BME280;67092;64.282;21.056;2023-04-25T12:12:49;100530.01;;;20.36;20.29
77897;BME280;67092;64.282;21.056;2023-04-25T12:15:16;100529.32;;;20.53;20.23
77897;BME280;67092;64.282;21.056;2023-04-25T12:17:41;100517.68;;;20.67;20.20
77897;BME280;67092;64.282;21.056;2023-04-25T12:20:08;100524.01;;;20.38;20.48
77897;BME280;67092;64.282;21.056;2023-04-25T12:22:31;100520.67;;;21.17;19.92
77897;BME280;67092;64.282;21.056;2023-04-25T12:24:57;100522.15;;;20.57;20.43
77897;BME280;67092;64.282;21.056;2023-04-25T12:27:22;100520.41;;;20.45;20.59
77897;BME280;67092;64.282;21.056;2023-04-25T12:29:52;100517.79;;;20.46;20.63
77897;BME280;67092;64.282;21.056;2023-04-25T12:32:13;100510.38;;;20.89;20.30
77897;BME280;67092;64.282;21.056;2023-04-25T12:34:39;100501.54;;;20.75;20.42
77897;BME280;67092;64.282;21.056;2023-04-25T12:37:04;100502.00;;;20.86;20.52
77897;BME280;67092;64.282;21.056;2023-04-25T12:39:30;100504.96;;;20.35;20.84